MAPA DE AEROPUERTO

INFORMACIÓN METAR y TAF


Deprecated: The each() function is deprecated. This message will be suppressed on further calls in /home/customer/www/clickair-va.com/public_html/VAM/vam/helpers/get_metar.php on line 20
METAR FOR LERS
ADDS - METARS form results

(0643 UTC 07 July 2022)
Data provider http://aviationweather.gov/metar/data/
 
METAR text: LERS 070630Z 00000KT 9999 FEW025 21/18 Q1021
Conditions at: LERS (REUS (CIV/MIL) , ES) observed 0630 UTC 07 July 2022
Temperature: 21.0°C (70°F)
Dewpoint: 18.0°C (64°F) [RH = 83%]
Pressure (altimeter): 30.15 inches Hg (1021.0 mb)
Winds: calm
Visibility: 6 or more miles (10+ km)
Ceiling: at least 12,000 feet AGL
Clouds: few clouds at 2500 feet AGL
Weather: no significant weather observed at this time

METAR text: LERS 070600Z VRB02KT 9999 FEW025 20/19 Q1021
Conditions at: LERS (REUS (CIV/MIL) , ES) observed 0600 UTC 07 July 2022
Temperature: 20.0°C (68°F)
Dewpoint: 19.0°C (66°F) [RH = 94%]
Pressure (altimeter): 30.15 inches Hg (1021.0 mb)
Winds: variable direction winds at 2 MPH (2 knots; 1.0 m/s)
Visibility: 6 or more miles (10+ km)
Ceiling: at least 12,000 feet AGL
Clouds: few clouds at 2500 feet AGL
Weather: no significant weather observed at this time

Forecast for: LERS (REUS (CIV/MIL) , ES)
Text: TAF LERS 070200Z 0703/0803 30009KT 9999 FEW025 TX34/0712Z TN20/0705Z
Forecast period: 0300 UTC 07 July 2022 to 0300 UTC 08 July 2022
Forecast type: FROM: standard forecast or significant change
Winds: from the WNW (300 degrees) at 10 MPH (9 knots; 4.6 m/s)
Visibility: 6 or more miles (10+ km)
Ceiling: at least 12,000 feet AGL
Clouds: few clouds at 2500 feet AGL
Weather: no significant weather forecast for this period
Text: TEMPO 0703/0709 VRB04KT
Forecast period: 0300 to 0900 UTC 07 July 2022
Forecast type: TEMPORARY: The following changes expected for less than half the time period
Winds: variable direction winds at 5 MPH (4 knots; 2.1 m/s)
Visibility: missing
Ceiling: unknown
Clouds: missing
Weather: no significant weather forecast for this period
Text: TEMPO 0714/0720 22010KT
Forecast period: 1400 to 2000 UTC 07 July 2022
Forecast type: TEMPORARY: The following changes expected for less than half the time period
Winds: from the SW (220 degrees) at 12 MPH (10 knots; 5.1 m/s)
Visibility: missing
Ceiling: unknown
Clouds: missing
Weather: no significant weather forecast for this period